Time;durP1;ratioP1;P1;durP2;ratioP2;P2;SDS_P1;SDS_P2;PMS_P1;PMS_P2;Temp;Humidity;BMP_temperature;BMP_pressure;BME280_temperature;BME280_humidity;BME280_pressure;Samples;Min_cycle;Max_cycle;Signal;HPM_P1;HPM_P2
2023/10/25 00:02:15;;;;;;;10.70;4.32;;;;;;;15.92;64.80;99234.94;5130918;28;20023;-80
2023/10/25 00:04:41;;;;;;;11.18;3.78;;;;;;;15.58;65.55;99201.84;5128702;28;20031;-78
2023/10/25 00:07:07;;;;;;;12.98;5.32;;;;;;;15.72;65.00;99222.53;5100791;28;20020;-77
2023/10/25 00:09:32;;;;;;;11.18;5.07;;;;;;;15.64;64.91;99218.47;5103186;28;20447;-78
2023/10/25 00:11:58;;;;;;;12.27;3.72;;;;;;;15.62;64.60;99207.03;5113431;28;20096;-78
2023/10/25 00:14:23;;;;;;;13.98;3.92;;;;;;;15.71;64.94;99217.28;5099478;28;20024;-78
2023/10/25 00:16:49;;;;;;;14.43;5.68;;;;;;;15.51;65.19;99197.72;5110573;28;20072;-77
2023/10/25 00:19:15;;;;;;;8.52;4.25;;;;;;;15.38;65.51;99188.53;5109851;28;20127;-77
2023/10/25 00:21:41;;;;;;;14.18;4.88;;;;;;;15.45;65.78;99213.94;5108177;28;20118;-77
2023/10/25 00:24:07;;;;;;;15.52;5.97;;;;;;;15.35;66.76;99201.97;5120392;28;20462;-77
2023/10/25 00:26:32;;;;;;;30.48;5.72;;;;;;;15.65;65.87;99220.19;5115096;27;20076;-78
2023/10/25 00:28:58;;;;;;;15.68;5.97;;;;;;;15.63;65.88;99222.03;5113122;28;20028;-77
2023/10/25 00:31:24;;;;;;;14.93;4.72;;;;;;;15.61;66.16;99213.28;5113143;27;20478;-77
2023/10/25 00:33:50;;;;;;;10.73;3.70;;;;;;;15.55;66.04;99209.06;5115041;27;20023;-78
2023/10/25 00:36:15;;;;;;;15.43;4.97;;;;;;;15.42;66.28;99194.59;5115517;27;20038;-78
2023/10/25 00:38:41;;;;;;;15.50;6.57;;;;;;;15.35;66.86;99201.97;5109138;28;20028;-77
2023/10/25 00:41:07;;;;;;;13.90;5.25;;;;;;;15.28;66.56;99209.34;5097548;27;20433;-77
2023/10/25 00:43:32;;;;;;;11.70;5.75;;;;;;;15.31;67.37;99211.84;5134516;27;20031;-78
2023/10/25 00:46:19;;;;;;;8.40;5.15;;;;;;;15.30;67.34;99169.41;5131269;27;20034;-77
2023/10/25 00:48:46;;;;;;;11.30;5.65;;;;;;;15.52;67.01;99194.16;5127799;27;20031;-78
2023/10/25 00:51:14;;;;;;;14.05;6.32;;;;;;;15.60;66.34;99192.94;5134756;27;20496;-77
2023/10/25 00:53:48;;;;;;;22.08;6.55;;;;;;;15.60;66.37;99201.78;5120742;27;20050;-78
2023/10/25 00:56:15;;;;;;;13.68;5.90;;;;;;;15.75;65.85;99208.22;5113962;27;20067;-80
2023/10/25 00:58:44;;;;;;;22.40;7.53;;;;;;;15.68;65.94;99183.69;5114417;27;20394;-77
2023/10/25 01:01:11;;;;;;;13.43;4.70;;;;;;;15.79;65.78;99207.19;5113624;28;20098;-77
2023/10/25 01:03:36;;;;;;;23.85;6.43;;;;;;;15.82;65.74;99195.53;5127218;27;20035;-77
2023/10/25 01:06:02;;;;;;;23.05;5.60;;;;;;;15.73;65.25;99202.97;5113929;28;20032;-78
2023/10/25 01:08:28;;;;;;;13.07;5.03;;;;;;;15.67;65.65;99210.34;5114542;27;20031;-77
2023/10/25 01:10:54;;;;;;;17.95;7.13;;;;;;;15.85;65.67;99241.50;5113852;28;20110;-77
2023/10/25 01:13:19;;;;;;;;;;;;;;;15.82;65.24;99233.66;5121940;27;20027;-78
2023/10/25 01:15:46;;;;;;;9.68;5.00;;;;;;;15.69;66.00;99229.75;5134161;27;19918;-78
2023/10/25 01:18:12;;;;;;;28.63;4.88;;;;;;;15.75;65.73;99226.81;5131950;27;20088;-78
2023/10/25 01:20:38;;;;;;;9.82;5.13;;;;;;;15.72;65.58;99217.22;5134346;27;20030;-77
2023/10/25 01:23:03;;;;;;;10.43;5.40;;;;;;;15.66;65.68;99222.78;5127964;27;20035;-78
2023/10/25 01:25:29;;;;;;;8.90;5.10;;;;;;;15.67;65.92;99226.31;5113309;28;20060;-77
2023/10/25 01:27:54;;;;;;;11.63;6.65;;;;;;;15.72;65.23;99232.28;5113141;28;20027;-78
2023/10/25 01:30:20;;;;;;;20.27;6.20;;;;;;;15.51;65.84;99219.00;5113660;27;20134;-77
2023/10/25 01:32:45;;;;;;;10.20;4.40;;;;;;;15.29;65.40;99187.16;5113686;28;20039;-77
2023/10/25 01:35:11;;;;;;;17.13;6.10;;;;;;;15.38;65.32;99200.06;5128971;27;20416;-78
2023/10/25 01:37:36;;;;;;;17.63;5.85;;;;;;;15.50;65.70;99224.38;5133300;27;20457;-77
2023/10/25 01:40:06;;;;;;;11.60;5.97;;;;;;;15.47;65.15;99195.25;5132473;27;20033;-77
2023/10/25 01:42:31;;;;;;;17.65;5.20;;;;;;;15.55;65.29;99217.06;5133595;27;20035;-78
2023/10/25 01:44:57;;;;;;;17.90;5.75;;;;;;;15.42;65.45;99200.78;5126999;27;20034;-78
2023/10/25 01:47:22;;;;;;;25.17;6.07;;;;;;;15.19;65.47;99151.28;5127671;27;20092;-77
2023/10/25 01:49:48;;;;;;;16.00;5.60;;;;;;;15.36;65.50;99182.44;5112768;27;20250;-78
2023/10/25 01:52:13;;;;;;;18.58;6.07;;;;;;;15.42;65.19;99197.25;5126879;27;20524;-78
2023/10/25 01:54:40;;;;;;;13.15;5.57;;;;;;;15.39;65.34;99184.97;5094544;28;20031;-78
2023/10/25 01:57:06;;;;;;;12.93;5.68;;;;;;;15.34;65.84;99186.97;5113775;28;20546;-77
2023/10/25 01:59:31;;;;;;;12.60;7.40;;;;;;;15.31;65.41;99184.44;5114322;28;20039;-79
2023/10/25 02:01:57;;;;;;;19.55;4.70;;;;;;;15.19;65.32;99157.44;5117632;27;20082;-78
2023/10/25 02:04:22;;;;;;;13.50;6.03;;;;;;;15.07;65.80;99147.34;5128866;27;20031;-78
2023/10/25 02:06:51;;;;;;;10.45;6.15;;;;;;;15.07;65.79;99136.72;5097571;27;20027;-76
2023/10/25 02:09:17;;;;;;;16.27;5.88;;;;;;;14.78;66.05;99136.16;5133074;27;20076;-75
2023/10/25 02:11:43;;;;;;;11.93;5.25;;;;;;;14.39;66.90;99104.94;5130738;27;20031;-78
2023/10/25 02:14:08;;;;;;;7.10;4.15;;;;;;;14.72;65.96;99139.06;5110675;27;20107;-78
2023/10/25 02:16:34;;;;;;;12.40;5.68;;;;;;;14.50;66.26;99112.47;5112523;28;20034;-78
2023/10/25 02:19:00;;;;;;;;;;;;;;;14.68;66.66;99158.69;5117929;27;20042;-79
2023/10/25 02:21:25;;;;;;;27.02;6.40;;;;;;;14.80;65.91;99141.41;5096248;27;20409;-78
2023/10/25 02:23:53;;;;;;;15.20;4.97;;;;;;;14.94;65.63;99165.59;5111984;28;20357;-78
2023/10/25 02:26:19;;;;;;;8.85;4.75;;;;;;;14.94;66.37;99143.47;5123501;27;20065;-79
2023/10/25 02:28:44;;;;;;;7.88;4.32;;;;;;;14.58;66.15;99094.47;5132682;27;20492;-78
2023/10/25 02:31:10;;;;;;;12.77;5.68;;;;;;;14.83;65.96;99131.50;5122826;27;20027;-78
2023/10/25 02:33:35;;;;;;;;;;;;;;;14.89;66.01;99153.41;5114016;28;20505;-78
2023/10/25 02:36:00;;;;;;;17.02;5.47;;;;;;;14.96;66.07;99146.94;5112034;28;19912;-78
2023/10/25 02:38:26;;;;;;;15.70;4.05;;;;;;;14.95;65.92;99143.41;5122228;27;20151;-78
2023/10/25 02:40:51;;;;;;;10.77;4.75;;;;;;;15.04;65.06;99158.97;5132032;27;20045;-78
2023/10/25 02:43:17;;;;;;;15.63;5.30;;;;;;;15.03;65.39;99170.50;5130392;27;20031;-78
2023/10/25 02:45:42;;;;;;;;;;;;;;;14.86;66.34;99176.50;5132528;27;20117;-78
2023/10/25 02:48:13;;;;;;;14.43;6.25;;;;;;;14.81;66.16;99154.59;5131356;27;19954;-78
2023/10/25 02:50:39;;;;;;;7.47;4.45;;;;;;;14.88;65.75;99143.72;5132081;27;20072;-78
2023/10/25 02:53:04;;;;;;;7.22;3.97;;;;;;;14.96;66.38;99170.81;5115295;27;20038;-78
2023/10/25 02:55:30;;;;;;;10.45;5.25;;;;;;;15.03;66.33;99172.31;5111956;27;20024;-78
2023/10/25 02:57:55;;;;;;;6.68;4.00;;;;;;;15.16;65.32;99181.47;5111180;28;20130;-78
2023/10/25 03:00:20;;;;;;;;;;;;;;;14.70;66.75;99190.47;5128230;27;20057;-78
2023/10/25 03:02:46;;;;;;;13.77;5.22;;;;;;;14.82;67.24;99190.84;5132282;27;19941;-78
2023/10/25 03:05:11;;;;;;;23.15;6.35;;;;;;;14.77;66.87;99176.03;5130247;27;20477;-78
2023/10/25 03:07:37;;;;;;;10.25;4.40;;;;;;;14.72;67.76;99175.34;5131403;27;20046;-78
2023/10/25 03:10:02;;;;;;;;;;;;;;;14.74;68.10;99177.00;5121986;27;20061;-80
2023/10/25 03:12:29;;;;;;;14.20;3.88;;;;;;;14.73;67.68;99150.53;5111435;28;20289;-78
2023/10/25 03:14:55;;;;;;;16.95;4.72;;;;;;;14.81;67.01;99151.97;5105429;27;20032;-78
2023/10/25 03:17:21;;;;;;;13.82;3.92;;;;;;;14.73;67.83;99185.03;5090677;28;20032;-77
2023/10/25 03:19:47;;;;;;;12.43;5.07;;;;;;;14.63;68.26;99171.28;5098283;27;20031;-78
2023/10/25 03:22:12;;;;;;;11.18;5.80;;;;;;;14.78;68.08;99193.69;5131102;27;20436;-77
2023/10/25 03:24:38;;;;;;;14.82;5.40;;;;;;;14.86;68.00;99195.09;5129831;27;20545;-78
2023/10/25 03:27:04;;;;;;;8.32;4.43;;;;;;;14.92;67.91;99195.78;5131390;27;20031;-79
2023/10/25 03:29:29;;;;;;;;;;;;;;;14.91;67.66;99192.25;5132077;27;20365;-77
2023/10/25 03:31:58;;;;;;;13.85;5.45;;;;;;;14.71;68.71;99202.81;5117712;27;19923;-78
2023/10/25 03:34:24;;;;;;;18.10;5.72;;;;;;;14.82;68.24;99204.09;5110728;28;20038;-78
2023/10/25 03:36:50;;;;;;;17.63;4.93;;;;;;;14.71;68.27;99214.31;5119367;27;20043;-79
2023/10/25 03:39:16;;;;;;;15.15;5.25;;;;;;;14.59;69.13;99206.78;5098176;28;20038;-78
2023/10/25 03:41:44;;;;;;;16.17;5.68;;;;;;;14.67;68.94;99213.56;5124083;27;20031;-75
2023/10/25 03:44:10;;;;;;;16.17;5.72;;;;;;;14.62;69.22;99215.53;5131344;27;20031;-78
2023/10/25 03:46:37;;;;;;;20.75;5.80;;;;;;;14.64;68.34;99196.88;5130123;27;20458;-77
2023/10/25 03:49:02;;;;;;;13.15;4.68;;;;;;;14.69;68.30;99218.81;5118766;27;20039;-78
2023/10/25 03:51:28;;;;;;;11.02;5.47;;;;;;;14.72;68.33;99216.03;5110636;28;20032;-79
2023/10/25 03:53:53;;;;;;;;;;;;;;;14.63;68.03;99227.88;5119506;27;20031;-80
2023/10/25 03:56:19;;;;;;;13.43;4.38;;;;;;;14.57;68.25;99206.84;5117361;28;20373;-78
2023/10/25 03:58:44;;;;;;;18.40;5.63;;;;;;;14.79;67.73;99228.13;5109373;28;20055;-79
2023/10/25 04:01:10;;;;;;;8.77;5.45;;;;;;;14.79;68.04;99220.16;5109351;28;20028;-79
2023/10/25 04:03:35;;;;;;;11.55;5.50;;;;;;;14.70;67.99;99220.53;5109861;28;20456;-79
2023/10/25 04:06:02;;;;;;;;;;;;;;;14.76;68.35;99214.13;5109850;28;20028;-77
2023/10/25 04:08:28;;;;;;;15.90;4.43;;;;;;;14.61;68.04;99176.66;5109767;28;19908;-79
2023/10/25 04:10:55;;;;;;;11.48;5.82;;;;;;;14.63;67.96;99184.56;5109924;28;20091;-79
2023/10/25 04:13:21;;;;;;;12.00;5.43;;;;;;;14.50;67.68;99150.50;5110117;28;20024;-79
2023/10/25 04:15:55;;;;;;;11.13;4.38;;;;;;;14.67;67.52;99179.06;5109241;28;20046;-78
2023/10/25 04:18:21;;;;;;;18.20;5.78;;;;;;;14.49;69.20;99153.22;5111619;28;20118;-78
2023/10/25 04:20:46;;;;;;;19.63;6.07;;;;;;;14.64;67.79;99155.28;5111541;28;20027;-78
2023/10/25 04:23:12;;;;;;;24.02;5.32;;;;;;;14.61;68.81;99134.19;5109510;28;20865;-79
2023/10/25 04:25:37;;;;;;;13.13;6.28;;;;;;;14.80;68.59;99141.41;5109166;28;20114;-79
2023/10/25 04:28:03;;;;;;;22.83;4.63;;;;;;;14.90;68.14;99160.47;5105799;28;20114;-79
2023/10/25 04:30:28;;;;;;;13.50;5.65;;;;;;;14.91;68.80;99147.13;5099086;28;20127;-80
2023/10/25 04:32:54;;;;;;;;;;;;;;;15.00;68.16;99154.69;5100282;28;20370;-80
2023/10/25 04:35:19;;;;;;;17.25;4.40;;;;;;;15.06;67.50;99147.41;5091092;28;19916;-80
2023/10/25 04:37:44;;;;;;;12.82;5.72;;;;;;;15.04;67.51;99139.50;5098201;28;20102;-80
2023/10/25 04:40:10;;;;;;;18.02;5.57;;;;;;;14.84;66.02;99114.66;5100433;28;20050;-80
2023/10/25 04:42:36;;;;;;;8.65;5.03;;;;;;;14.78;67.33;99141.47;5100102;28;20409;-79
2023/10/25 04:45:01;;;;;;;11.75;4.45;;;;;;;14.68;67.83;99108.25;5100473;28;20057;-76
2023/10/25 04:47:26;;;;;;;;;;;;;;;14.98;66.95;99131.78;5098378;28;20409;-75
2023/10/25 04:49:52;;;;;;;16.75;5.03;;;;;;;14.91;66.47;99125.88;5091107;28;20046;-75
2023/10/25 04:52:19;;;;;;;;;;;;;;;14.92;66.85;99126.72;5099974;28;20038;-78
2023/10/25 04:54:44;;;;;;;20.85;4.60;;;;;;;14.84;67.55;99104.03;5099825;28;20006;-75
2023/10/25 04:57:10;;;;;;;8.15;5.32;;;;;;;14.81;67.12;99067.00;5098183;28;20110;-75
2023/10/25 04:59:35;;;;;;;24.85;5.07;;;;;;;15.09;67.29;99099.44;5097155;28;20460;-77
2023/10/25 05:02:00;;;;;;;12.77;4.47;;;;;;;15.12;66.10;99102.88;5097879;28;20442;-78
2023/10/25 05:04:26;;;;;;;23.02;5.60;;;;;;;14.89;66.10;99077.28;5097632;28;20028;-77
2023/10/25 05:06:52;;;;;;;10.68;4.28;;;;;;;14.86;66.09;99117.25;5097531;28;20505;-78
2023/10/25 05:09:18;;;;;;;12.85;3.58;;;;;;;14.64;66.67;99104.88;5098706;28;20032;-78
2023/10/25 05:11:55;;;;;;;26.80;4.60;;;;;;;14.70;66.26;99102.88;5099781;28;20031;-79
2023/10/25 05:14:21;;;;;;;13.98;4.35;;;;;;;14.71;66.84;99109.91;5102492;28;20024;-79
2023/10/25 05:16:47;;;;;;;12.73;4.85;;;;;;;14.71;67.10;99113.44;5101705;28;20054;-76
2023/10/25 05:19:12;;;;;;;22.25;4.63;;;;;;;14.80;67.16;99083.84;5103842;28;20036;-79
2023/10/25 05:21:42;;;;;;;;;;;;;;;14.98;66.70;99100.78;5105206;28;20474;-76
2023/10/25 05:24:08;;;;;;;13.57;4.35;;;;;;;14.91;67.27;99107.28;5103949;28;19998;-77
2023/10/25 05:26:33;;;;;;;21.77;6.18;;;;;;;14.84;67.89;99076.59;5094742;28;20032;-76
2023/10/25 05:28:59;;;;;;;12.38;5.65;;;;;;;14.88;67.23;99061.41;5101375;28;20043;-79
2023/10/25 05:31:27;;;;;;;12.02;5.93;;;;;;;14.98;67.32;99074.25;5094722;28;20028;-76
2023/10/25 05:33:53;;;;;;;32.90;6.47;;;;;;;14.81;67.82;99080.28;5099631;27;20059;-77
2023/10/25 05:36:19;;;;;;;24.02;5.07;;;;;;;14.97;67.57;99106.16;5094754;27;20230;-77
2023/10/25 05:38:45;;;;;;;21.08;5.10;;;;;;;14.88;66.54;99074.69;5102046;27;20118;-78
2023/10/25 05:41:21;;;;;;;10.88;6.00;;;;;;;15.01;67.01;99089.16;5099062;27;20035;-77
2023/10/25 05:44:12;;;;;;;22.42;6.40;;;;;;;15.25;67.09;99123.59;5097190;27;20024;-77
2023/10/25 05:46:38;;;;;;;9.40;4.72;;;;;;;15.16;67.54;99122.19;5103564;27;20040;-77
2023/10/25 05:49:04;;;;;;;13.00;4.43;;;;;;;15.17;67.61;99115.94;5093032;27;20023;-77
2023/10/25 05:51:30;;;;;;;14.52;4.57;;;;;;;14.99;67.35;99081.25;5099925;27;20027;-77
2023/10/25 05:53:55;;;;;;;9.40;4.95;;;;;;;15.01;67.68;99081.19;5098421;27;20028;-77
2023/10/25 05:56:25;;;;;;;12.57;5.00;;;;;;;15.14;67.48;99101.00;5093431;27;20058;-77
2023/10/25 05:58:52;;;;;;;17.50;7.60;;;;;;;14.93;67.78;99086.81;5094930;27;20059;-77
2023/10/25 06:01:25;;;;;;;15.13;7.85;;;;;;;14.73;67.44;99092.13;5093016;27;20553;-77
2023/10/25 06:03:51;;;;;;;14.10;5.38;;;;;;;14.74;68.53;99101.81;5101524;28;20449;-77
2023/10/25 06:06:19;;;;;;;14.60;7.70;;;;;;;14.95;67.75;99108.00;5094053;27;20028;-77
2023/10/25 06:08:45;;;;;;;9.27;4.82;;;;;;;14.95;67.11;99124.81;5102088;28;20070;-78
2023/10/25 06:11:11;;;;;;;14.18;7.00;;;;;;;14.97;67.17;99133.59;5092051;27;20032;-78
2023/10/25 06:13:37;;;;;;;13.68;5.32;;;;;;;15.01;66.60;99131.66;5092401;28;20043;-81
2023/10/25 06:16:03;;;;;;;15.30;6.15;;;;;;;15.02;66.16;99114.81;5089477;27;20024;-78
2023/10/25 06:18:28;;;;;;;23.17;6.40;;;;;;;15.07;66.20;99126.09;5098247;28;20027;-78
2023/10/25 06:20:54;;;;;;;13.23;6.75;;;;;;;15.14;66.08;99140.84;5098170;28;20579;-78
2023/10/25 06:23:19;;;;;;;;;;;;;;;15.22;65.34;99152.00;5098189;28;20067;-78
2023/10/25 06:25:44;;;;;;;20.35;6.97;;;;;;;15.07;65.43;99141.16;5098043;28;19915;-79
2023/10/25 06:28:10;;;;;;;45.47;8.45;;;;;;;14.99;66.10;99131.72;5097969;28;20028;-78
2023/10/25 06:30:35;;;;;;;9.52;5.65;;;;;;;14.95;66.73;99140.75;5091892;27;20029;-78
2023/10/25 06:33:01;;;;;;;19.10;6.82;;;;;;;15.08;66.55;99153.53;5100006;28;20024;-80
2023/10/25 06:35:26;;;;;;;31.92;9.10;;;;;;;15.07;66.30;99154.44;5098628;28;20118;-78
2023/10/25 06:37:52;;;;;;;12.77;6.53;;;;;;;15.17;66.30;99161.97;5098011;28;20119;-78
2023/10/25 06:40:18;;;;;;;15.85;6.30;;;;;;;15.38;66.04;99183.22;5090819;28;20039;-79
2023/10/25 06:42:43;;;;;;;23.20;5.65;;;;;;;15.46;65.63;99169.59;5099263;28;20032;-78
2023/10/25 06:45:14;;;;;;;20.63;6.57;;;;;;;15.42;65.85;99157.41;5099427;28;20036;-80
2023/10/25 06:47:44;;;;;;;19.33;6.53;;;;;;;15.63;65.73;99196.34;5098362;28;20054;-79
2023/10/25 06:50:13;;;;;;;14.70;5.50;;;;;;;15.65;65.46;99162.56;5097522;28;20311;-80
2023/10/25 06:52:39;;;;;;;17.55;6.20;;;;;;;15.74;65.24;99183.44;5097296;28;20030;-79
2023/10/25 06:55:05;;;;;;;16.20;7.13;;;;;;;15.62;65.88;99152.06;5095853;28;20482;-79
2023/10/25 06:57:31;;;;;;;31.52;7.15;;;;;;;15.72;65.38;99164.03;5101546;28;20127;-78
2023/10/25 06:59:56;;;;;;;17.92;6.25;;;;;;;15.67;66.37;99197.91;5090717;28;20035;-78
2023/10/25 07:02:45;;;;;;;13.43;6.20;;;;;;;15.74;66.19;99178.09;5095592;28;20024;-79
2023/10/25 07:05:13;;;;;;;17.35;7.35;;;;;;;15.71;65.77;99153.47;5055379;28;20079;-78
2023/10/25 07:07:40;;;;;;;27.42;8.35;;;;;;;15.72;65.49;99153.38;5054925;28;20049;-79
2023/10/25 07:10:08;;;;;;;21.77;7.32;;;;;;;15.84;65.50;99159.97;5054997;28;20064;-80
2023/10/25 07:12:34;;;;;;;21.13;5.93;;;;;;;15.75;66.20;99170.97;5055480;28;20496;-79
2023/10/25 07:14:59;;;;;;;17.23;6.95;;;;;;;15.88;65.36;99142.06;5054490;28;20068;-78
2023/10/25 07:17:27;;;;;;;18.63;6.03;;;;;;;15.86;64.69;99134.16;5035431;28;20048;-80
2023/10/25 07:19:53;;;;;;;23.33;7.47;;;;;;;15.97;64.60;99141.66;5055454;28;20046;-79
2023/10/25 07:22:19;;;;;;;30.00;7.18;;;;;;;16.01;64.18;99153.03;5053984;28;20156;-79
2023/10/25 07:24:44;;;;;;;21.70;6.32;;;;;;;16.09;63.76;99151.72;5054641;28;20118;-82
2023/10/25 07:27:10;;;;;;;24.85;7.05;;;;;;;16.18;64.51;99161.09;5057386;28;20043;-79
2023/10/25 07:29:36;;;;;;;26.88;5.57;;;;;;;16.21;64.37;99154.75;5058545;28;20090;-79
2023/10/25 07:32:03;;;;;;;19.25;5.55;;;;;;;16.43;64.21;99173.25;5054958;28;20028;-80
2023/10/25 07:34:29;;;;;;;14.65;4.93;;;;;;;16.43;63.53;99163.44;5054079;28;20041;-80
2023/10/25 07:36:54;;;;;;;13.80;5.15;;;;;;;16.37;62.76;99133.59;5054572;28;20045;-80
2023/10/25 07:39:21;;;;;;;14.18;5.85;;;;;;;16.66;62.64;99158.81;5054743;28;20472;-80
2023/10/25 07:41:47;;;;;;;13.07;4.88;;;;;;;16.45;62.53;99116.34;5061700;28;20054;-80
2023/10/25 07:44:12;;;;;;;22.85;5.63;;;;;;;16.67;62.23;99133.03;5091355;28;20111;-81
2023/10/25 07:46:37;;;;;;;29.27;5.88;;;;;;;16.81;62.24;99142.09;5099584;28;20050;-80
2023/10/25 07:49:03;;;;;;;24.42;5.88;;;;;;;16.80;61.56;99132.38;5092641;28;20152;-80
2023/10/25 07:51:28;;;;;;;38.53;6.57;;;;;;;16.97;61.82;99160.00;5089402;28;20028;-80
2023/10/25 07:53:54;;;;;;;35.10;5.30;;;;;;;17.14;61.74;99154.69;5090247;28;20526;-81
2023/10/25 07:56:19;;;;;;;29.38;6.78;;;;;;;17.08;62.12;99151.47;5089251;28;20031;-77
2023/10/25 07:58:45;;;;;;;29.48;5.43;;;;;;;17.28;61.12;99148.66;5099506;28;20125;-77
2023/10/25 08:01:12;;;;;;;22.65;6.35;;;;;;;17.39;61.20;99150.75;5109585;28;20024;-77
2023/10/25 08:03:37;;;;;;;28.20;6.43;;;;;;;17.53;61.10;99158.94;5091656;28;20185;-80
2023/10/25 08:06:03;;;;;;;23.60;7.00;;;;;;;17.56;60.60;99133.03;5070097;28;20115;-79
2023/10/25 08:08:28;;;;;;;32.47;5.53;;;;;;;17.69;60.04;99129.63;5099504;28;20035;-78
2023/10/25 08:11:05;;;;;;;35.28;6.00;;;;;;;17.75;59.31;99128.47;5099106;28;20064;-77
2023/10/25 08:13:32;;;;;;;39.20;6.45;;;;;;;17.87;58.75;99154.47;5098668;28;20047;-78
2023/10/25 08:15:58;;;;;;;59.83;6.35;;;;;;;18.01;58.31;99183.13;5091285;28;20046;-78
2023/10/25 08:18:26;;;;;;;26.33;4.85;;;;;;;17.83;59.27;99170.72;5110188;28;20039;-79
2023/10/25 08:20:51;;;;;;;36.20;8.20;;;;;;;17.96;59.16;99161.13;5117976;28;20032;-77
2023/10/25 08:23:18;;;;;;;11.48;5.78;;;;;;;18.15;58.97;99181.50;5109030;28;20493;-77
2023/10/25 08:25:43;;;;;;;31.08;6.55;;;;;;;18.19;59.45;99185.72;5106027;28;20027;-80
2023/10/25 08:28:09;;;;;;;16.77;4.90;;;;;;;18.20;58.76;99152.75;5087899;28;20044;-81
2023/10/25 08:30:34;;;;;;;60.25;6.00;;;;;;;18.36;58.86;99164.28;5088173;28;20020;-78
2023/10/25 08:33:00;;;;;;;24.23;6.22;;;;;;;18.25;59.47;99135.53;5099879;28;20020;-79
2023/10/25 08:35:26;;;;;;;36.72;9.27;;;;;;;18.24;58.64;99114.25;5094457;28;20146;-78
2023/10/25 08:37:51;;;;;;;37.92;13.30;;;;;;;18.50;58.88;99146.66;5088809;28;20016;-78
2023/10/25 08:40:17;;;;;;;41.10;13.73;;;;;;;18.64;58.40;99156.56;5088362;28;20416;-77
2023/10/25 08:42:43;;;;;;;38.90;14.15;;;;;;;18.79;59.03;99163.69;5088688;28;20036;-79
2023/10/25 08:45:09;;;;;;;28.63;11.52;;;;;;;18.33;58.49;99118.22;5088249;28;20175;-78
2023/10/25 08:47:35;;;;;;;23.52;8.20;;;;;;;18.69;58.40;99127.75;5091205;28;20474;-78
2023/10/25 08:50:02;;;;;;;23.42;7.15;;;;;;;18.59;57.72;99136.31;5092259;28;20032;-78
2023/10/25 08:52:27;;;;;;;10.70;6.38;;;;;;;18.77;57.61;99170.94;5092429;28;20106;-78
2023/10/25 08:54:53;;;;;;;23.08;5.28;;;;;;;18.68;56.86;99132.25;5092199;28;20111;-76
2023/10/25 08:57:18;;;;;;;29.88;7.05;;;;;;;18.85;57.38;99158.03;5092488;28;20126;-78
2023/10/25 08:59:46;;;;;;;15.43;6.10;;;;;;;19.06;56.48;99150.59;5092159;28;20042;-78
2023/10/25 09:02:12;;;;;;;14.05;6.70;;;;;;;18.72;56.91;99148.97;5091707;28;20032;-77
2023/10/25 09:04:56;;;;;;;22.42;7.25;;;;;;;19.05;57.06;99146.19;5107667;28;20093;-79
2023/10/25 09:07:32;;;;;;;18.90;4.95;;;;;;;19.28;56.61;99168.88;5092203;28;20462;-79
2023/10/25 09:09:58;;;;;;;19.90;6.68;;;;;;;19.24;56.16;99155.78;5092183;28;20105;-79
2023/10/25 09:12:25;;;;;;;20.73;4.93;;;;;;;19.09;56.48;99153.09;5091719;28;20081;-78
2023/10/25 09:14:51;;;;;;;11.32;5.72;;;;;;;19.15;56.69;99157.19;5073378;28;20123;-77
2023/10/25 09:17:17;;;;;;;27.67;7.45;;;;;;;18.93;57.30;99162.94;5092051;28;20043;-78
2023/10/25 09:19:44;;;;;;;12.85;7.43;;;;;;;19.12;57.29;99174.28;5092014;28;20032;-78
2023/10/25 09:22:26;;;;;;;12.20;6.30;;;;;;;19.16;57.25;99177.63;5099431;28;20035;-78
2023/10/25 09:24:54;;;;;;;18.77;5.68;;;;;;;18.93;56.92;99162.94;5092378;28;20119;-78
2023/10/25 09:27:21;;;;;;;24.05;5.93;;;;;;;18.87;56.37;99174.81;5090632;28;20038;-78
2023/10/25 09:29:46;;;;;;;13.32;4.90;;;;;;;19.07;56.71;99160.31;5091933;28;20024;-78
2023/10/25 09:32:12;;;;;;;10.88;5.13;;;;;;;18.88;56.38;99165.03;5091612;28;20520;-78
2023/10/25 09:34:38;;;;;;;13.82;4.72;;;;;;;19.12;55.67;99135.97;5072178;28;20130;-79
2023/10/25 09:37:04;;;;;;;11.65;4.30;;;;;;;19.61;55.28;99174.97;5091176;27;20024;-79
2023/10/25 09:39:32;;;;;;;11.80;5.72;;;;;;;19.83;56.02;99137.97;5091457;28;20116;-79
2023/10/25 09:42:18;;;;;;;13.48;5.25;;;;;;;19.88;54.88;99124.31;5090850;28;20032;-78
2023/10/25 09:44:51;;;;;;;15.57;4.55;;;;;;;20.02;54.86;99126.13;5091414;28;20039;-78
2023/10/25 09:47:18;;;;;;;17.30;5.97;;;;;;;20.22;54.00;99148.94;5091100;28;20024;-81
2023/10/25 09:49:48;;;;;;;23.10;6.38;;;;;;;20.28;54.31;99123.56;5112030;28;20104;-79
2023/10/25 09:52:25;;;;;;;13.45;5.95;;;;;;;20.38;53.84;99101.47;5111541;28;20023;-79
2023/10/25 09:54:52;;;;;;;13.63;5.55;;;;;;;20.18;52.74;99132.19;5098842;27;20462;-79
2023/10/25 09:57:19;;;;;;;13.13;5.65;;;;;;;20.28;53.32;99100.34;5089387;28;20039;-81
2023/10/25 09:59:46;;;;;;;9.32;4.85;;;;;;;20.51;53.48;99119.41;5091309;28;20074;-79
2023/10/25 10:03:07;;;;;;;13.07;4.60;;;;;;;20.35;52.92;99124.91;5091235;28;20020;-79
2023/10/25 10:05:51;;;;;;;11.73;5.13;;;;;;;20.10;53.44;99104.22;5055225;28;20032;-79
2023/10/25 10:08:42;;;;;;;25.98;6.15;;;;;;;20.28;53.08;99126.25;5068773;28;20040;-78
2023/10/25 10:11:21;;;;;;;14.20;5.43;;;;;;;20.22;53.40;99095.38;5068496;28;20030;-79
2023/10/25 10:14:15;;;;;;;17.75;5.07;;;;;;;20.52;53.03;99119.31;5068243;28;20040;-79
2023/10/25 10:16:40;;;;;;;12.73;5.95;;;;;;;20.48;51.94;99090.13;5061173;28;20041;-80
2023/10/25 10:19:11;;;;;;;12.15;5.80;;;;;;;20.45;52.35;99119.81;5068580;28;20084;-81
2023/10/25 10:22:16;;;;;;;16.83;7.07;;;;;;;20.67;52.35;99101.41;5068551;28;20036;-81
2023/10/25 10:24:47;;;;;;;24.48;7.55;;;;;;;20.81;52.10;99097.81;5068108;28;20036;-81
2023/10/25 10:27:17;;;;;;;11.75;6.97;;;;;;;20.99;51.53;99090.38;5067984;28;20063;-81
2023/10/25 10:29:45;;;;;;;14.00;5.38;;;;;;;21.11;50.84;99085.97;5066828;28;20041;-81
2023/10/25 10:32:11;;;;;;;14.98;4.82;;;;;;;21.29;50.94;99084.69;5067396;28;20044;-79
2023/10/25 10:34:41;;;;;;;19.35;4.70;;;;;;;21.44;49.95;99060.44;5068127;28;20510;-83
2023/10/25 10:37:09;;;;;;;9.95;3.95;;;;;;;21.58;49.43;99073.81;5067388;28;20060;-81
2023/10/25 10:39:36;;;;;;;9.68;4.05;;;;;;;21.62;49.19;99071.75;5083143;28;20540;-80
2023/10/25 10:42:02;;;;;;;13.32;4.43;;;;;;;21.41;48.31;99055.28;5091013;28;20028;-79
2023/10/25 10:44:28;;;;;;;12.23;4.65;;;;;;;21.21;48.71;99029.88;5090383;28;20218;-78
2023/10/25 10:46:58;;;;;;;19.35;4.35;;;;;;;21.43;48.90;99046.19;5091106;28;20039;-78
2023/10/25 10:49:29;;;;;;;11.25;4.40;;;;;;;21.18;48.40;99025.59;5104152;28;20039;-79
2023/10/25 10:51:55;;;;;;;16.45;4.80;;;;;;;21.46;48.42;99050.50;5090226;28;20408;-78
2023/10/25 10:54:21;;;;;;;9.48;3.58;;;;;;;21.72;48.84;99046.00;5090765;28;20028;-78
2023/10/25 10:56:46;;;;;;;15.63;6.03;;;;;;;21.94;48.30;99053.34;5090320;28;20082;-79
2023/10/25 10:59:12;;;;;;;6.20;3.65;;;;;;;21.79;47.92;99008.81;5090443;28;20059;-81
2023/10/25 11:01:37;;;;;;;12.20;3.75;;;;;;;21.69;49.34;99035.47;5090786;28;20036;-81
2023/10/25 11:04:03;;;;;;;15.10;3.92;;;;;;;21.72;48.63;99031.69;5090637;28;20027;-79
2023/10/25 11:06:29;;;;;;;10.90;4.22;;;;;;;21.88;48.90;99018.91;5090576;28;20032;-78
2023/10/25 11:08:58;;;;;;;10.38;3.78;;;;;;;22.06;48.04;99032.81;5089874;28;20064;-80
2023/10/25 11:11:23;;;;;;;8.18;3.95;;;;;;;22.14;48.15;99008.94;5090088;28;20024;-78
2023/10/25 11:13:49;;;;;;;22.27;4.72;;;;;;;22.04;48.32;99032.03;5090251;28;20043;-78
2023/10/25 11:16:16;;;;;;;18.50;5.60;;;;;;;22.16;48.37;99004.28;5090450;28;20024;-80
2023/10/25 11:18:41;;;;;;;16.90;5.55;;;;;;;22.12;47.74;99004.63;5089701;28;20118;-78
2023/10/25 11:21:07;;;;;;;13.50;5.07;;;;;;;22.29;47.61;98981.88;5090255;28;20028;-78
2023/10/25 11:23:32;;;;;;;15.05;4.90;;;;;;;22.08;47.77;98987.91;5089932;28;20123;-78
2023/10/25 11:25:58;;;;;;;11.80;5.38;;;;;;;22.08;47.86;98985.22;5089817;28;20505;-80
2023/10/25 11:28:23;;;;;;;12.35;5.22;;;;;;;22.15;47.53;99012.47;5095584;27;20493;-79
2023/10/25 11:30:50;;;;;;;10.02;5.70;;;;;;;22.32;48.03;99000.50;5110308;28;20035;-78